sensor_id;sensor_type;location;lat;lon;timestamp;temperature;humidity
3194;DHT22;1608;50.860;13.466;2023-02-02T00:00:46;5.10;99.90
3194;DHT22;1608;50.860;13.466;2023-02-02T00:03:14;4.80;99.90
3194;DHT22;1608;50.860;13.466;2023-02-02T00:05:44;5.10;99.90
3194;DHT22;1608;50.860;13.466;2023-02-02T00:08:11;5.40;99.90
3194;DHT22;1608;50.860;13.466;2023-02-02T00:10:40;5.80;99.90
3194;DHT22;1608;50.860;13.466;2023-02-02T00:13:06;5.90;99.90
3194;DHT22;1608;50.860;13.466;2023-02-02T00:15:33;5.90;99.90
3194;DHT22;1608;50.860;13.466;2023-02-02T00:18:00;5.80;99.90
3194;DHT22;1608;50.860;13.466;2023-02-02T00:20:27;5.70;99.90
3194;DHT22;1608;50.860;13.466;2023-02-02T00:22:54;5.60;99.90
3194;DHT22;1608;50.860;13.466;2023-02-02T00:25:21;5.50;99.90
3194;DHT22;1608;50.860;13.466;2023-02-02T00:27:50;5.50;99.90
3194;DHT22;1608;50.860;13.466;2023-02-02T00:30:17;5.60;99.90
3194;DHT22;1608;50.860;13.466;2023-02-02T00:32:44;5.50;99.90
3194;DHT22;1608;50.860;13.466;2023-02-02T00:35:13;5.50;99.90
3194;DHT22;1608;50.860;13.466;2023-02-02T00:37:40;5.50;99.90
3194;DHT22;1608;50.860;13.466;2023-02-02T00:40:09;5.30;99.90
3194;DHT22;1608;50.860;13.466;2023-02-02T00:42:36;5.40;99.90
3194;DHT22;1608;50.860;13.466;2023-02-02T00:45:05;5.40;99.90
3194;DHT22;1608;50.860;13.466;2023-02-02T00:47:45;5.40;99.90
3194;DHT22;1608;50.860;13.466;2023-02-02T00:50:14;4.80;99.90
3194;DHT22;1608;50.860;13.466;2023-02-02T00:52:42;5.30;99.90
3194;DHT22;1608;50.860;13.466;2023-02-02T00:55:09;5.30;99.90
3194;DHT22;1608;50.860;13.466;2023-02-02T00:57:37;5.30;99.90
3194;DHT22;1608;50.860;13.466;2023-02-02T01:00:07;5.40;99.90
3194;DHT22;1608;50.860;13.466;2023-02-02T01:02:35;5.30;99.90
3194;DHT22;1608;50.860;13.466;2023-02-02T01:05:02;5.20;99.90
3194;DHT22;1608;50.860;13.466;2023-02-02T01:07:29;5.30;99.90
3194;DHT22;1608;50.860;13.466;2023-02-02T01:09:56;5.30;99.90
3194;DHT22;1608;50.860;13.466;2023-02-02T01:12:23;5.30;99.90
3194;DHT22;1608;50.860;13.466;2023-02-02T01:14:50;5.30;99.90
3194;DHT22;1608;50.860;13.466;2023-02-02T01:17:18;5.30;99.90
3194;DHT22;1608;50.860;13.466;2023-02-02T01:19:45;5.30;99.90
3194;DHT22;1608;50.860;13.466;2023-02-02T01:22:12;5.30;99.90
3194;DHT22;1608;50.860;13.466;2023-02-02T01:24:39;5.30;99.90
3194;DHT22;1608;50.860;13.466;2023-02-02T01:27:06;5.20;99.90
3194;DHT22;1608;50.860;13.466;2023-02-02T01:29:33;5.20;99.90
3194;DHT22;1608;50.860;13.466;2023-02-02T01:32:00;5.20;99.90
3194;DHT22;1608;50.860;13.466;2023-02-02T01:34:28;5.20;99.90
3194;DHT22;1608;50.860;13.466;2023-02-02T01:36:55;5.20;99.90
3194;DHT22;1608;50.860;13.466;2023-02-02T01:39:22;5.10;99.90
3194;DHT22;1608;50.860;13.466;2023-02-02T01:41:48;5.20;99.90
3194;DHT22;1608;50.860;13.466;2023-02-02T01:47:22;5.40;99.90
3194;DHT22;1608;50.860;13.466;2023-02-02T01:49:51;5.30;99.90
3194;DHT22;1608;50.860;13.466;2023-02-02T01:52:23;5.20;99.90
3194;DHT22;1608;50.860;13.466;2023-02-02T01:54:54;5.20;99.90
3194;DHT22;1608;50.860;13.466;2023-02-02T01:57:25;5.10;99.90
3194;DHT22;1608;50.860;13.466;2023-02-02T01:59:55;5.10;99.90
3194;DHT22;1608;50.860;13.466;2023-02-02T02:02:23;5.10;99.90
3194;DHT22;1608;50.860;13.466;2023-02-02T02:04:53;5.20;99.90
3194;DHT22;1608;50.860;13.466;2023-02-02T02:07:20;5.20;99.90
3194;DHT22;1608;50.860;13.466;2023-02-02T02:09:47;5.30;99.90
3194;DHT22;1608;50.860;13.466;2023-02-02T02:12:15;5.10;99.90
3194;DHT22;1608;50.860;13.466;2023-02-02T02:14:44;5.10;99.90
3194;DHT22;1608;50.860;13.466;2023-02-02T02:17:50;5.10;99.90
3194;DHT22;1608;50.860;13.466;2023-02-02T02:20:57;5.10;99.90
3194;DHT22;1608;50.860;13.466;2023-02-02T02:30:57;4.90;99.90
3194;DHT22;1608;50.860;13.466;2023-02-02T02:33:34;4.90;99.90
3194;DHT22;1608;50.860;13.466;2023-02-02T02:36:09;4.90;99.90
3194;DHT22;1608;50.860;13.466;2023-02-02T02:38:41;5.00;99.90
3194;DHT22;1608;50.860;13.466;2023-02-02T02:43:44;4.90;99.90
3194;DHT22;1608;50.860;13.466;2023-02-02T02:48:44;4.90;99.90
3194;DHT22;1608;50.860;13.466;2023-02-02T02:51:40;4.90;99.90
3194;DHT22;1608;50.860;13.466;2023-02-02T02:54:07;4.90;99.90
3194;DHT22;1608;50.860;13.466;2023-02-02T02:56:38;4.90;99.90
3194;DHT22;1608;50.860;13.466;2023-02-02T02:59:16;4.80;99.90
3194;DHT22;1608;50.860;13.466;2023-02-02T03:01:51;4.80;99.90
3194;DHT22;1608;50.860;13.466;2023-02-02T03:04:26;4.90;99.90
3194;DHT22;1608;50.860;13.466;2023-02-02T03:07:01;4.90;99.90
3194;DHT22;1608;50.860;13.466;2023-02-02T03:09:33;4.90;99.90
3194;DHT22;1608;50.860;13.466;2023-02-02T03:12:01;4.80;99.90
3194;DHT22;1608;50.860;13.466;2023-02-02T03:14:28;4.90;99.90
3194;DHT22;1608;50.860;13.466;2023-02-02T03:16:59;4.80;99.90
3194;DHT22;1608;50.860;13.466;2023-02-02T03:19:27;4.70;99.90
3194;DHT22;1608;50.860;13.466;2023-02-02T03:21:54;4.80;99.90
3194;DHT22;1608;50.860;13.466;2023-02-02T03:24:21;4.80;99.90
3194;DHT22;1608;50.860;13.466;2023-02-02T03:26:48;4.80;99.90
3194;DHT22;1608;50.860;13.466;2023-02-02T03:29:15;4.80;99.90
3194;DHT22;1608;50.860;13.466;2023-02-02T03:31:42;4.90;99.90
3194;DHT22;1608;50.860;13.466;2023-02-02T03:34:09;4.90;99.90
3194;DHT22;1608;50.860;13.466;2023-02-02T03:36:37;5.00;99.90
3194;DHT22;1608;50.860;13.466;2023-02-02T03:39:04;5.00;99.90
3194;DHT22;1608;50.860;13.466;2023-02-02T03:41:31;5.10;99.90
3194;DHT22;1608;50.860;13.466;2023-02-02T03:43:58;5.10;99.90
3194;DHT22;1608;50.860;13.466;2023-02-02T03:46:25;5.00;99.90
3194;DHT22;1608;50.860;13.466;2023-02-02T03:48:52;4.90;99.90
3194;DHT22;1608;50.860;13.466;2023-02-02T03:51:19;4.90;99.90
3194;DHT22;1608;50.860;13.466;2023-02-02T03:53:47;4.90;99.90
3194;DHT22;1608;50.860;13.466;2023-02-02T03:56:14;4.80;99.90
3194;DHT22;1608;50.860;13.466;2023-02-02T03:58:41;4.80;99.90
3194;DHT22;1608;50.860;13.466;2023-02-02T04:01:10;4.80;99.90
3194;DHT22;1608;50.860;13.466;2023-02-02T04:03:38;4.80;99.90
3194;DHT22;1608;50.860;13.466;2023-02-02T04:06:05;4.80;99.90
3194;DHT22;1608;50.860;13.466;2023-02-02T04:08:32;4.80;99.90
3194;DHT22;1608;50.860;13.466;2023-02-02T04:11:01;4.80;99.90
3194;DHT22;1608;50.860;13.466;2023-02-02T04:13:27;4.90;99.90
3194;DHT22;1608;50.860;13.466;2023-02-02T04:15:56;5.00;99.90
3194;DHT22;1608;50.860;13.466;2023-02-02T04:18:23;5.00;99.90
3194;DHT22;1608;50.860;13.466;2023-02-02T04:20:55;5.10;99.90
3194;DHT22;1608;50.860;13.466;2023-02-02T04:25:49;5.20;99.90
3194;DHT22;1608;50.860;13.466;2023-02-02T04:28:18;5.20;99.90
3194;DHT22;1608;50.860;13.466;2023-02-02T04:30:45;5.30;99.90
3194;DHT22;1608;50.860;13.466;2023-02-02T04:33:11;5.30;99.90
3194;DHT22;1608;50.860;13.466;2023-02-02T04:35:38;5.40;99.90
3194;DHT22;1608;50.860;13.466;2023-02-02T04:38:05;5.30;99.90
3194;DHT22;1608;50.860;13.466;2023-02-02T04:40:32;5.30;99.90
3194;DHT22;1608;50.860;13.466;2023-02-02T04:42:59;5.20;99.90
3194;DHT22;1608;50.860;13.466;2023-02-02T04:45:27;5.20;99.90
3194;DHT22;1608;50.860;13.466;2023-02-02T04:47:53;5.30;99.90
3194;DHT22;1608;50.860;13.466;2023-02-02T04:50:20;5.20;99.90
3194;DHT22;1608;50.860;13.466;2023-02-02T04:52:47;5.30;99.90
3194;DHT22;1608;50.860;13.466;2023-02-02T04:55:14;5.30;99.90
3194;DHT22;1608;50.860;13.466;2023-02-02T04:57:41;5.40;99.90
3194;DHT22;1608;50.860;13.466;2023-02-02T05:00:09;5.40;99.90
3194;DHT22;1608;50.860;13.466;2023-02-02T05:02:38;5.40;99.90
3194;DHT22;1608;50.860;13.466;2023-02-02T05:05:08;5.40;99.90
3194;DHT22;1608;50.860;13.466;2023-02-02T05:07:35;5.40;99.90
3194;DHT22;1608;50.860;13.466;2023-02-02T05:10:02;5.50;99.90
3194;DHT22;1608;50.860;13.466;2023-02-02T05:12:29;5.40;99.90
3194;DHT22;1608;50.860;13.466;2023-02-02T05:14:56;5.50;99.90
3194;DHT22;1608;50.860;13.466;2023-02-02T05:17:25;5.70;99.90
3194;DHT22;1608;50.860;13.466;2023-02-02T05:19:53;5.60;99.90
3194;DHT22;1608;50.860;13.466;2023-02-02T05:22:20;5.50;99.90
3194;DHT22;1608;50.860;13.466;2023-02-02T05:24:47;5.60;99.90
3194;DHT22;1608;50.860;13.466;2023-02-02T05:27:14;5.70;99.90
3194;DHT22;1608;50.860;13.466;2023-02-02T05:29:40;6.10;99.90
3194;DHT22;1608;50.860;13.466;2023-02-02T05:32:07;6.20;99.90
3194;DHT22;1608;50.860;13.466;2023-02-02T05:34:34;6.00;99.90
3194;DHT22;1608;50.860;13.466;2023-02-02T05:37:02;5.80;99.90
3194;DHT22;1608;50.860;13.466;2023-02-02T05:39:29;5.50;99.90
3194;DHT22;1608;50.860;13.466;2023-02-02T05:41:56;5.60;99.90
3194;DHT22;1608;50.860;13.466;2023-02-02T05:44:23;5.80;99.90
3194;DHT22;1608;50.860;13.466;2023-02-02T05:46:49;6.20;99.90
3194;DHT22;1608;50.860;13.466;2023-02-02T05:49:16;6.20;99.90
3194;DHT22;1608;50.860;13.466;2023-02-02T05:51:45;6.00;99.90
3194;DHT22;1608;50.860;13.466;2023-02-02T05:54:14;5.90;99.90
3194;DHT22;1608;50.860;13.466;2023-02-02T05:56:45;6.00;99.90
3194;DHT22;1608;50.860;13.466;2023-02-02T05:59:11;6.20;99.90
3194;DHT22;1608;50.860;13.466;2023-02-02T06:01:38;6.30;99.90
3194;DHT22;1608;50.860;13.466;2023-02-02T06:04:05;6.20;99.90
3194;DHT22;1608;50.860;13.466;2023-02-02T06:06:32;6.00;99.90
3194;DHT22;1608;50.860;13.466;2023-02-02T06:09:00;6.00;99.90
3194;DHT22;1608;50.860;13.466;2023-02-02T06:11:28;6.10;99.90
3194;DHT22;1608;50.860;13.466;2023-02-02T06:13:55;6.10;99.90
3194;DHT22;1608;50.860;13.466;2023-02-02T06:16:22;6.20;99.90
3194;DHT22;1608;50.860;13.466;2023-02-02T06:18:48;6.00;99.90
3194;DHT22;1608;50.860;13.466;2023-02-02T06:21:15;6.00;99.90
3194;DHT22;1608;50.860;13.466;2023-02-02T06:23:44;6.00;99.90
3194;DHT22;1608;50.860;13.466;2023-02-02T06:26:11;6.00;99.90
3194;DHT22;1608;50.860;13.466;2023-02-02T06:28:39;6.00;99.90
3194;DHT22;1608;50.860;13.466;2023-02-02T06:31:09;6.10;99.90
3194;DHT22;1608;50.860;13.466;2023-02-02T06:33:36;6.40;99.90
3194;DHT22;1608;50.860;13.466;2023-02-02T06:36:04;6.50;99.90
3194;DHT22;1608;50.860;13.466;2023-02-02T06:38:32;6.40;99.90
3194;DHT22;1608;50.860;13.466;2023-02-02T06:40:59;6.20;99.90
3194;DHT22;1608;50.860;13.466;2023-02-02T06:43:26;6.00;99.90
3194;DHT22;1608;50.860;13.466;2023-02-02T06:45:56;6.00;99.90
3194;DHT22;1608;50.860;13.466;2023-02-02T06:48:23;6.20;99.90
3194;DHT22;1608;50.860;13.466;2023-02-02T06:50:50;6.80;99.90
3194;DHT22;1608;50.860;13.466;2023-02-02T06:53:17;6.40;99.90
3194;DHT22;1608;50.860;13.466;2023-02-02T06:55:52;6.30;99.90
3194;DHT22;1608;50.860;13.466;2023-02-02T06:58:19;6.30;99.90
3194;DHT22;1608;50.860;13.466;2023-02-02T07:00:45;6.20;99.90
3194;DHT22;1608;50.860;13.466;2023-02-02T07:03:14;6.10;99.90
3194;DHT22;1608;50.860;13.466;2023-02-02T07:05:41;6.10;99.90
3194;DHT22;1608;50.860;13.466;2023-02-02T07:08:07;6.30;99.90
3194;DHT22;1608;50.860;13.466;2023-02-02T07:10:36;8.10;99.90
3194;DHT22;1608;50.860;13.466;2023-02-02T07:13:03;6.10;99.90
3194;DHT22;1608;50.860;13.466;2023-02-02T07:15:31;6.00;99.90
3194;DHT22;1608;50.860;13.466;2023-02-02T07:17:58;6.10;99.90
3194;DHT22;1608;50.860;13.466;2023-02-02T07:20:26;6.10;99.90
3194;DHT22;1608;50.860;13.466;2023-02-02T07:22:53;6.00;99.90
3194;DHT22;1608;50.860;13.466;2023-02-02T07:25:21;6.00;99.90
3194;DHT22;1608;50.860;13.466;2023-02-02T07:27:51;6.00;99.90
3194;DHT22;1608;50.860;13.466;2023-02-02T07:30:18;5.80;99.90
3194;DHT22;1608;50.860;13.466;2023-02-02T07:32:46;5.90;99.90
3194;DHT22;1608;50.860;13.466;2023-02-02T07:35:13;5.80;99.90
3194;DHT22;1608;50.860;13.466;2023-02-02T07:37:41;5.90;99.90
3194;DHT22;1608;50.860;13.466;2023-02-02T07:40:09;6.00;99.90
3194;DHT22;1608;50.860;13.466;2023-02-02T07:42:36;6.20;99.90
3194;DHT22;1608;50.860;13.466;2023-02-02T07:45:04;6.40;99.90
3194;DHT22;1608;50.860;13.466;2023-02-02T07:47:31;6.40;99.90
3194;DHT22;1608;50.860;13.466;2023-02-02T07:49:58;6.40;99.90
3194;DHT22;1608;50.860;13.466;2023-02-02T07:52:24;6.40;99.90
3194;DHT22;1608;50.860;13.466;2023-02-02T07:54:52;6.40;99.90
3194;DHT22;1608;50.860;13.466;2023-02-02T07:57:19;6.70;99.90
3194;DHT22;1608;50.860;13.466;2023-02-02T07:59:46;6.60;99.90
3194;DHT22;1608;50.860;13.466;2023-02-02T08:02:14;6.60;99.90
3194;DHT22;1608;50.860;13.466;2023-02-02T08:04:41;6.50;99.90
3194;DHT22;1608;50.860;13.466;2023-02-02T08:07:08;6.40;99.90
3194;DHT22;1608;50.860;13.466;2023-02-02T08:09:35;6.40;99.90
3194;DHT22;1608;50.860;13.466;2023-02-02T08:12:04;6.30;99.90
3194;DHT22;1608;50.860;13.466;2023-02-02T08:14:31;6.40;99.90
3194;DHT22;1608;50.860;13.466;2023-02-02T08:16:58;6.60;99.90
3194;DHT22;1608;50.860;13.466;2023-02-02T08:19:24;6.30;99.90
3194;DHT22;1608;50.860;13.466;2023-02-02T08:21:51;6.50;99.90
3194;DHT22;1608;50.860;13.466;2023-02-02T08:24:18;6.60;99.90
3194;DHT22;1608;50.860;13.466;2023-02-02T08:26:45;6.70;99.90
3194;DHT22;1608;50.860;13.466;2023-02-02T08:29:13;6.70;99.90
3194;DHT22;1608;50.860;13.466;2023-02-02T08:31:43;6.60;99.90
3194;DHT22;1608;50.860;13.466;2023-02-02T08:34:11;6.50;99.90
3194;DHT22;1608;50.860;13.466;2023-02-02T08:36:38;6.50;99.90
3194;DHT22;1608;50.860;13.466;2023-02-02T08:39:07;6.60;99.90
3194;DHT22;1608;50.860;13.466;2023-02-02T08:41:34;6.50;99.90
3194;DHT22;1608;50.860;13.466;2023-02-02T08:44:04;6.60;99.90
3194;DHT22;1608;50.860;13.466;2023-02-02T08:46:32;6.60;99.90
3194;DHT22;1608;50.860;13.466;2023-02-02T08:48:59;6.40;99.90
3194;DHT22;1608;50.860;13.466;2023-02-02T08:51:26;6.50;99.90
3194;DHT22;1608;50.860;13.466;2023-02-02T08:53:53;6.60;99.90
3194;DHT22;1608;50.860;13.466;2023-02-02T08:56:20;6.60;99.90
3194;DHT22;1608;50.860;13.466;2023-02-02T08:58:49;6.60;99.90
3194;DHT22;1608;50.860;13.466;2023-02-02T09:01:18;6.50;99.90
3194;DHT22;1608;50.860;13.466;2023-02-02T09:03:47;6.60;99.90
3194;DHT22;1608;50.860;13.466;2023-02-02T09:06:15;6.60;99.90
3194;DHT22;1608;50.860;13.466;2023-02-02T09:08:44;6.60;99.90
3194;DHT22;1608;50.860;13.466;2023-02-02T09:11:12;6.80;99.90
3194;DHT22;1608;50.860;13.466;2023-02-02T09:13:40;6.90;99.90
3194;DHT22;1608;50.860;13.466;2023-02-02T09:16:09;6.90;99.90
3194;DHT22;1608;50.860;13.466;2023-02-02T09:18:36;8.20;99.90
3194;DHT22;1608;50.860;13.466;2023-02-02T09:21:07;7.20;99.90
3194;DHT22;1608;50.860;13.466;2023-02-02T09:23:36;7.20;99.90
3194;DHT22;1608;50.860;13.466;2023-02-02T09:26:10;7.00;99.90
3194;DHT22;1608;50.860;13.466;2023-02-02T09:28:38;7.00;99.90
3194;DHT22;1608;50.860;13.466;2023-02-02T09:31:05;7.00;99.90
3194;DHT22;1608;50.860;13.466;2023-02-02T09:33:32;7.10;99.90
3194;DHT22;1608;50.860;13.466;2023-02-02T09:36:05;7.00;99.90
3194;DHT22;1608;50.860;13.466;2023-02-02T09:38:32;6.90;99.90
3194;DHT22;1608;50.860;13.466;2023-02-02T09:40:59;6.90;99.90
3194;DHT22;1608;50.860;13.466;2023-02-02T09:43:36;6.70;99.90
3194;DHT22;1608;50.860;13.466;2023-02-02T09:46:14;6.70;99.90
3194;DHT22;1608;50.860;13.466;2023-02-02T09:48:50;6.60;99.90
3194;DHT22;1608;50.860;13.466;2023-02-02T09:51:22;6.70;99.90
3194;DHT22;1608;50.860;13.466;2023-02-02T09:53:55;6.70;99.90
3194;DHT22;1608;50.860;13.466;2023-02-02T09:56:28;6.80;99.90
3194;DHT22;1608;50.860;13.466;2023-02-02T09:58:59;6.80;99.90
3194;DHT22;1608;50.860;13.466;2023-02-02T10:01:30;6.70;99.90
3194;DHT22;1608;50.860;13.466;2023-02-02T10:03:59;6.70;99.90
3194;DHT22;1608;50.860;13.466;2023-02-02T10:06:34;6.90;99.90
3194;DHT22;1608;50.860;13.466;2023-02-02T10:09:12;6.80;99.90
3194;DHT22;1608;50.860;13.466;2023-02-02T10:11:48;6.80;99.90
3194;DHT22;1608;50.860;13.466;2023-02-02T10:14:19;6.90;99.90
3194;DHT22;1608;50.860;13.466;2023-02-02T10:16:48;6.90;99.90
3194;DHT22;1608;50.860;13.466;2023-02-02T10:19:18;6.80;99.90
3194;DHT22;1608;50.860;13.466;2023-02-02T10:21:52;6.80;99.90
3194;DHT22;1608;50.860;13.466;2023-02-02T10:24:22;6.90;99.90
3194;DHT22;1608;50.860;13.466;2023-02-02T10:26:53;6.90;99.90
3194;DHT22;1608;50.860;13.466;2023-02-02T10:29:31;6.90;99.90
3194;DHT22;1608;50.860;13.466;2023-02-02T10:32:09;7.10;99.90
3194;DHT22;1608;50.860;13.466;2023-02-02T10:34:40;7.10;99.90
3194;DHT22;1608;50.860;13.466;2023-02-02T10:37:20;7.40;99.90
3194;DHT22;1608;50.860;13.466;2023-02-02T10:40:09;7.60;99.90
3194;DHT22;1608;50.860;13.466;2023-02-02T10:42:46;7.70;99.90
3194;DHT22;1608;50.860;13.466;2023-02-02T10:45:39;7.70;99.90
3194;DHT22;1608;50.860;13.466;2023-02-02T10:48:13;7.60;99.90
3194;DHT22;1608;50.860;13.466;2023-02-02T10:50:42;6.90;99.90
3194;DHT22;1608;50.860;13.466;2023-02-02T10:53:14;7.50;99.90
3194;DHT22;1608;50.860;13.466;2023-02-02T10:55:45;7.40;99.90
3194;DHT22;1608;50.860;13.466;2023-02-02T10:58:22;7.50;99.90
3194;DHT22;1608;50.860;13.466;2023-02-02T11:00:51;7.80;99.90
3194;DHT22;1608;50.860;13.466;2023-02-02T11:03:21;7.80;99.90
3194;DHT22;1608;50.860;13.466;2023-02-02T11:05:49;8.00;99.90
3194;DHT22;1608;50.860;13.466;2023-02-02T11:08:37;8.10;99.90
3194;DHT22;1608;50.860;13.466;2023-02-02T11:11:10;8.30;99.90
3194;DHT22;1608;50.860;13.466;2023-02-02T11:13:41;8.40;99.90
3194;DHT22;1608;50.860;13.466;2023-02-02T11:16:20;8.50;99.90
3194;DHT22;1608;50.860;13.466;2023-02-02T11:18:49;8.50;99.90
3194;DHT22;1608;50.860;13.466;2023-02-02T11:21:18;8.40;99.90
3194;DHT22;1608;50.860;13.466;2023-02-02T11:23:53;8.40;99.90
3194;DHT22;1608;50.860;13.466;2023-02-02T11:26:22;8.40;99.90
3194;DHT22;1608;50.860;13.466;2023-02-02T11:28:51;8.40;99.90
3194;DHT22;1608;50.860;13.466;2023-02-02T11:31:36;8.50;99.90
3194;DHT22;1608;50.860;13.466;2023-02-02T11:34:16;9.30;99.90
3194;DHT22;1608;50.860;13.466;2023-02-02T11:37:19;8.40;99.90
3194;DHT22;1608;50.860;13.466;2023-02-02T11:39:48;8.30;99.90
3194;DHT22;1608;50.860;13.466;2023-02-02T11:42:16;8.30;99.90
3194;DHT22;1608;50.860;13.466;2023-02-02T11:44:46;8.20;99.90
3194;DHT22;1608;50.860;13.466;2023-02-02T11:47:19;8.20;99.90
3194;DHT22;1608;50.860;13.466;2023-02-02T11:49:47;8.30;99.90
3194;DHT22;1608;50.860;13.466;2023-02-02T11:52:18;8.40;99.90
3194;DHT22;1608;50.860;13.466;2023-02-02T11:54:49;8.40;99.90
3194;DHT22;1608;50.860;13.466;2023-02-02T11:57:18;8.60;99.90
3194;DHT22;1608;50.860;13.466;2023-02-02T11:59:48;8.60;99.90
3194;DHT22;1608;50.860;13.466;2023-02-02T12:02:28;8.50;99.90
3194;DHT22;1608;50.860;13.466;2023-02-02T12:05:13;8.50;99.90
3194;DHT22;1608;50.860;13.466;2023-02-02T12:07:41;8.40;99.90
3194;DHT22;1608;50.860;13.466;2023-02-02T12:10:17;8.50;99.90
3194;DHT22;1608;50.860;13.466;2023-02-02T12:12:53;9.90;99.90
3194;DHT22;1608;50.860;13.466;2023-02-02T12:15:31;7.80;99.90
3194;DHT22;1608;50.860;13.466;2023-02-02T12:18:12;6.80;99.90
3194;DHT22;1608;50.860;13.466;2023-02-02T12:20:48;6.40;99.90
3194;DHT22;1608;50.860;13.466;2023-02-02T12:23:44;6.60;99.90
3194;DHT22;1608;50.860;13.466;2023-02-02T12:26:26;7.10;99.90
3194;DHT22;1608;50.860;13.466;2023-02-02T12:29:16;7.20;99.90
3194;DHT22;1608;50.860;13.466;2023-02-02T12:31:53;7.20;99.90
3194;DHT22;1608;50.860;13.466;2023-02-02T12:34:31;7.40;99.90
3194;DHT22;1608;50.860;13.466;2023-02-02T12:37:07;7.50;99.90
3194;DHT22;1608;50.860;13.466;2023-02-02T12:39:45;7.80;99.90
3194;DHT22;1608;50.860;13.466;2023-02-02T12:42:38;8.10;99.90
3194;DHT22;1608;50.860;13.466;2023-02-02T12:45:27;8.40;99.90
3194;DHT22;1608;50.860;13.466;2023-02-02T12:48:08;8.60;99.90
3194;DHT22;1608;50.860;13.466;2023-02-02T12:50:38;8.90;99.90
3194;DHT22;1608;50.860;13.466;2023-02-02T12:53:23;8.90;99.90
3194;DHT22;1608;50.860;13.466;2023-02-02T12:56:02;9.00;99.90
3194;DHT22;1608;50.860;13.466;2023-02-02T12:58:35;8.90;99.90
3194;DHT22;1608;50.860;13.466;2023-02-02T13:01:19;8.90;99.90
3194;DHT22;1608;50.860;13.466;2023-02-02T13:07:17;8.50;99.90
3194;DHT22;1608;50.860;13.466;2023-02-02T13:09:50;8.20;99.90
3194;DHT22;1608;50.860;13.466;2023-02-02T13:12:19;8.10;99.90
3194;DHT22;1608;50.860;13.466;2023-02-02T13:14:51;7.90;99.90
3194;DHT22;1608;50.860;13.466;2023-02-02T13:17:25;7.80;99.90
3194;DHT22;1608;50.860;13.466;2023-02-02T13:19:58;7.90;99.90
3194;DHT22;1608;50.860;13.466;2023-02-02T13:22:29;7.80;99.90
3194;DHT22;1608;50.860;13.466;2023-02-02T13:25:00;7.90;99.90
3194;DHT22;1608;50.860;13.466;2023-02-02T13:27:29;8.00;99.90
3194;DHT22;1608;50.860;13.466;2023-02-02T13:30:02;8.10;99.90
3194;DHT22;1608;50.860;13.466;2023-02-02T13:32:33;8.10;99.90
3194;DHT22;1608;50.860;13.466;2023-02-02T13:35:09;8.00;99.90
3194;DHT22;1608;50.860;13.466;2023-02-02T13:37:45;8.10;99.90
3194;DHT22;1608;50.860;13.466;2023-02-02T13:40:23;8.00;99.90
3194;DHT22;1608;50.860;13.466;2023-02-02T13:42:53;7.80;99.90
3194;DHT22;1608;50.860;13.466;2023-02-02T13:45:42;7.70;99.90
3194;DHT22;1608;50.860;13.466;2023-02-02T13:48:22;7.70;99.90
3194;DHT22;1608;50.860;13.466;2023-02-02T13:51:12;7.90;99.90
3194;DHT22;1608;50.860;13.466;2023-02-02T13:53:57;8.20;99.90
3194;DHT22;1608;50.860;13.466;2023-02-02T13:56:38;8.50;99.90
3194;DHT22;1608;50.860;13.466;2023-02-02T13:59:34;8.60;99.90
3194;DHT22;1608;50.860;13.466;2023-02-02T14:02:18;8.70;99.90
3194;DHT22;1608;50.860;13.466;2023-02-02T14:04:54;8.70;99.90
3194;DHT22;1608;50.860;13.466;2023-02-02T14:07:27;8.60;99.90
3194;DHT22;1608;50.860;13.466;2023-02-02T14:09:54;8.20;99.90
3194;DHT22;1608;50.860;13.466;2023-02-02T14:12:28;8.00;99.90
3194;DHT22;1608;50.860;13.466;2023-02-02T14:14:56;8.10;99.90
3194;DHT22;1608;50.860;13.466;2023-02-02T14:17:50;8.00;99.90
3194;DHT22;1608;50.860;13.466;2023-02-02T14:20:46;7.90;99.90
3194;DHT22;1608;50.860;13.466;2023-02-02T14:23:51;8.30;99.90
3194;DHT22;1608;50.860;13.466;2023-02-02T14:26:39;8.50;99.90
3194;DHT22;1608;50.860;13.466;2023-02-02T14:29:35;8.60;99.90
3194;DHT22;1608;50.860;13.466;2023-02-02T14:32:27;8.60;99.90
3194;DHT22;1608;50.860;13.466;2023-02-02T14:35:00;8.50;99.90
3194;DHT22;1608;50.860;13.466;2023-02-02T14:37:52;8.60;99.90
3194;DHT22;1608;50.860;13.466;2023-02-02T14:40:31;8.50;99.90
3194;DHT22;1608;50.860;13.466;2023-02-02T14:43:15;8.40;99.90
3194;DHT22;1608;50.860;13.466;2023-02-02T14:46:24;8.20;99.90
3194;DHT22;1608;50.860;13.466;2023-02-02T14:49:13;7.90;99.90
3194;DHT22;1608;50.860;13.466;2023-02-02T14:51:55;7.70;99.90
3194;DHT22;1608;50.860;13.466;2023-02-02T14:54:26;7.50;99.90
3194;DHT22;1608;50.860;13.466;2023-02-02T14:56:57;7.20;99.90
3194;DHT22;1608;50.860;13.466;2023-02-02T14:59:27;7.00;99.90
3194;DHT22;1608;50.860;13.466;2023-02-02T15:02:01;6.80;99.90
3194;DHT22;1608;50.860;13.466;2023-02-02T15:04:32;6.70;99.90
3194;DHT22;1608;50.860;13.466;2023-02-02T15:10:00;6.80;99.90
3194;DHT22;1608;50.860;13.466;2023-02-02T15:12:31;6.70;99.90
3194;DHT22;1608;50.860;13.466;2023-02-02T15:18:05;6.70;99.90
3194;DHT22;1608;50.860;13.466;2023-02-02T15:20:36;6.70;99.90
3194;DHT22;1608;50.860;13.466;2023-02-02T15:23:12;6.70;99.90
3194;DHT22;1608;50.860;13.466;2023-02-02T15:25:48;8.00;99.90
3194;DHT22;1608;50.860;13.466;2023-02-02T15:28:20;6.50;99.90
3194;DHT22;1608;50.860;13.466;2023-02-02T15:30:53;6.50;99.90
3194;DHT22;1608;50.860;13.466;2023-02-02T15:33:26;6.40;99.90
3194;DHT22;1608;50.860;13.466;2023-02-02T15:35:56;6.50;99.90
3194;DHT22;1608;50.860;13.466;2023-02-02T15:38:31;6.50;99.90
3194;DHT22;1608;50.860;13.466;2023-02-02T15:41:04;6.40;99.90
3194;DHT22;1608;50.860;13.466;2023-02-02T15:43:33;6.50;99.90
3194;DHT22;1608;50.860;13.466;2023-02-02T15:46:03;6.50;99.90
3194;DHT22;1608;50.860;13.466;2023-02-02T15:48:31;6.30;99.90
3194;DHT22;1608;50.860;13.466;2023-02-02T15:51:03;6.10;99.90
3194;DHT22;1608;50.860;13.466;2023-02-02T15:53:43;6.20;99.90
3194;DHT22;1608;50.860;13.466;2023-02-02T15:56:20;6.30;99.90
3194;DHT22;1608;50.860;13.466;2023-02-02T15:58:55;6.30;99.90
3194;DHT22;1608;50.860;13.466;2023-02-02T16:01:24;6.30;99.90
3194;DHT22;1608;50.860;13.466;2023-02-02T16:03:55;6.30;99.90
3194;DHT22;1608;50.860;13.466;2023-02-02T16:06:24;6.40;99.90
3194;DHT22;1608;50.860;13.466;2023-02-02T16:08:51;6.40;99.90
3194;DHT22;1608;50.860;13.466;2023-02-02T16:11:21;6.30;99.90
3194;DHT22;1608;50.860;13.466;2023-02-02T16:13:57;6.40;99.90
3194;DHT22;1608;50.860;13.466;2023-02-02T16:16:27;6.30;99.90
3194;DHT22;1608;50.860;13.466;2023-02-02T16:19:03;6.50;99.90
3194;DHT22;1608;50.860;13.466;2023-02-02T16:21:32;7.00;99.90
3194;DHT22;1608;50.860;13.466;2023-02-02T16:23:59;7.30;99.90
3194;DHT22;1608;50.860;13.466;2023-02-02T16:26:30;7.30;99.90
3194;DHT22;1608;50.860;13.466;2023-02-02T16:28:58;7.40;99.90
3194;DHT22;1608;50.860;13.466;2023-02-02T16:31:25;7.50;99.90
3194;DHT22;1608;50.860;13.466;2023-02-02T16:33:52;7.50;99.90
3194;DHT22;1608;50.860;13.466;2023-02-02T16:36:23;7.50;99.90
3194;DHT22;1608;50.860;13.466;2023-02-02T16:38:51;7.60;99.90
3194;DHT22;1608;50.860;13.466;2023-02-02T16:41:26;7.60;99.90
3194;DHT22;1608;50.860;13.466;2023-02-02T16:43:54;7.70;99.90
3194;DHT22;1608;50.860;13.466;2023-02-02T16:46:42;7.80;99.90
3194;DHT22;1608;50.860;13.466;2023-02-02T16:49:15;7.70;99.90
3194;DHT22;1608;50.860;13.466;2023-02-02T16:51:45;7.70;99.90
3194;DHT22;1608;50.860;13.466;2023-02-02T16:54:18;7.80;99.90
3194;DHT22;1608;50.860;13.466;2023-02-02T16:56:47;7.80;99.90